sensor_id;sensor_type;location;lat;lon;timestamp;P1;durP1;ratioP1;P2;durP2;ratioP2
66437;SDS011;54537;47.972;11.662;2024-02-26T00:03:56;4.70;;;2.22;;
66437;SDS011;54537;47.972;11.662;2024-02-26T00:06:24;5.70;;;3.00;;
66437;SDS011;54537;47.972;11.662;2024-02-26T00:08:51;6.50;;;3.30;;
66437;SDS011;54537;47.972;11.662;2024-02-26T00:11:17;7.10;;;3.15;;
66437;SDS011;54537;47.972;11.662;2024-02-26T00:13:43;5.88;;;3.20;;
66437;SDS011;54537;47.972;11.662;2024-02-26T00:16:10;5.63;;;3.00;;
66437;SDS011;54537;47.972;11.662;2024-02-26T00:18:37;7.80;;;3.40;;
66437;SDS011;54537;47.972;11.662;2024-02-26T00:21:05;5.97;;;3.30;;
66437;SDS011;54537;47.972;11.662;2024-02-26T00:23:31;6.93;;;3.30;;
66437;SDS011;54537;47.972;11.662;2024-02-26T00:25:58;6.70;;;3.50;;
66437;SDS011;54537;47.972;11.662;2024-02-26T00:28:24;7.95;;;3.40;;
66437;SDS011;54537;47.972;11.662;2024-02-26T00:30:52;5.50;;;3.00;;
66437;SDS011;54537;47.972;11.662;2024-02-26T00:33:21;5.25;;;2.60;;
66437;SDS011;54537;47.972;11.662;2024-02-26T00:35:48;5.60;;;2.83;;
66437;SDS011;54537;47.972;11.662;2024-02-26T00:38:16;6.15;;;2.85;;
66437;SDS011;54537;47.972;11.662;2024-02-26T00:40:42;5.97;;;3.00;;
66437;SDS011;54537;47.972;11.662;2024-02-26T00:43:09;6.47;;;2.97;;
66437;SDS011;54537;47.972;11.662;2024-02-26T00:45:35;6.35;;;3.00;;
66437;SDS011;54537;47.972;11.662;2024-02-26T00:48:02;5.75;;;2.85;;
66437;SDS011;54537;47.972;11.662;2024-02-26T00:50:30;7.35;;;3.10;;
66437;SDS011;54537;47.972;11.662;2024-02-26T00:52:56;7.25;;;3.30;;
66437;SDS011;54537;47.972;11.662;2024-02-26T00:55:24;4.78;;;2.50;;
66437;SDS011;54537;47.972;11.662;2024-02-26T00:57:51;6.75;;;2.58;;
66437;SDS011;54537;47.972;11.662;2024-02-26T01:00:17;4.68;;;2.60;;
66437;SDS011;54537;47.972;11.662;2024-02-26T01:02:44;5.00;;;2.42;;
66437;SDS011;54537;47.972;11.662;2024-02-26T01:05:11;4.28;;;2.08;;
66437;SDS011;54537;47.972;11.662;2024-02-26T01:07:38;5.67;;;2.63;;
66437;SDS011;54537;47.972;11.662;2024-02-26T01:10:06;4.97;;;2.50;;
66437;SDS011;54537;47.972;11.662;2024-02-26T01:12:34;6.70;;;2.60;;
66437;SDS011;54537;47.972;11.662;2024-02-26T01:15:01;6.10;;;2.40;;
66437;SDS011;54537;47.972;11.662;2024-02-26T01:17:28;4.97;;;2.60;;
66437;SDS011;54537;47.972;11.662;2024-02-26T01:19:54;5.03;;;2.30;;
66437;SDS011;54537;47.972;11.662;2024-02-26T01:22:21;5.70;;;2.50;;
66437;SDS011;54537;47.972;11.662;2024-02-26T01:24:47;5.70;;;2.47;;
66437;SDS011;54537;47.972;11.662;2024-02-26T01:27:14;7.55;;;3.03;;
66437;SDS011;54537;47.972;11.662;2024-02-26T01:29:42;5.45;;;2.75;;
66437;SDS011;54537;47.972;11.662;2024-02-26T01:32:09;5.15;;;2.50;;
66437;SDS011;54537;47.972;11.662;2024-02-26T01:34:35;6.35;;;2.53;;
66437;SDS011;54537;47.972;11.662;2024-02-26T01:37:02;4.65;;;2.40;;
66437;SDS011;54537;47.972;11.662;2024-02-26T01:39:29;5.50;;;2.42;;
66437;SDS011;54537;47.972;11.662;2024-02-26T01:41:56;5.82;;;2.50;;
66437;SDS011;54537;47.972;11.662;2024-02-26T01:44:22;5.13;;;2.60;;
66437;SDS011;54537;47.972;11.662;2024-02-26T01:46:50;5.97;;;2.60;;
66437;SDS011;54537;47.972;11.662;2024-02-26T01:49:18;5.20;;;2.50;;
66437;SDS011;54537;47.972;11.662;2024-02-26T01:51:44;4.28;;;2.25;;
66437;SDS011;54537;47.972;11.662;2024-02-26T01:54:11;4.88;;;2.22;;
66437;SDS011;54537;47.972;11.662;2024-02-26T01:56:38;3.97;;;2.00;;
66437;SDS011;54537;47.972;11.662;2024-02-26T01:59:05;7.78;;;2.60;;
66437;SDS011;54537;47.972;11.662;2024-02-26T02:01:32;5.15;;;2.40;;
66437;SDS011;54537;47.972;11.662;2024-02-26T02:04:00;5.30;;;2.60;;
66437;SDS011;54537;47.972;11.662;2024-02-26T02:06:27;6.95;;;2.65;;
66437;SDS011;54537;47.972;11.662;2024-02-26T02:08:54;4.65;;;2.35;;
66437;SDS011;54537;47.972;11.662;2024-02-26T02:11:20;5.73;;;2.37;;
66437;SDS011;54537;47.972;11.662;2024-02-26T02:13:47;3.92;;;2.25;;
66437;SDS011;54537;47.972;11.662;2024-02-26T02:16:13;4.63;;;2.05;;
66437;SDS011;54537;47.972;11.662;2024-02-26T02:18:40;4.38;;;2.00;;
66437;SDS011;54537;47.972;11.662;2024-02-26T02:21:08;2.92;;;1.65;;
66437;SDS011;54537;47.972;11.662;2024-02-26T02:23:34;2.95;;;1.70;;
66437;SDS011;54537;47.972;11.662;2024-02-26T02:26:00;3.22;;;1.38;;
66437;SDS011;54537;47.972;11.662;2024-02-26T02:28:27;3.30;;;1.45;;
66437;SDS011;54537;47.972;11.662;2024-02-26T02:30:53;2.72;;;1.33;;
66437;SDS011;54537;47.972;11.662;2024-02-26T02:33:20;3.03;;;1.50;;
66437;SDS011;54537;47.972;11.662;2024-02-26T02:35:48;2.42;;;1.23;;
66437;SDS011;54537;47.972;11.662;2024-02-26T02:38:17;2.03;;;1.00;;
66437;SDS011;54537;47.972;11.662;2024-02-26T02:40:43;2.45;;;1.25;;
66437;SDS011;54537;47.972;11.662;2024-02-26T02:43:09;2.22;;;1.20;;
66437;SDS011;54537;47.972;11.662;2024-02-26T02:45:36;2.25;;;1.08;;
66437;SDS011;54537;47.972;11.662;2024-02-26T02:48:03;1.60;;;0.90;;
66437;SDS011;54537;47.972;11.662;2024-02-26T02:50:30;2.07;;;1.07;;
66437;SDS011;54537;47.972;11.662;2024-02-26T02:52:57;1.70;;;1.00;;
66437;SDS011;54537;47.972;11.662;2024-02-26T02:55:24;1.40;;;0.90;;
66437;SDS011;54537;47.972;11.662;2024-02-26T02:57:51;2.70;;;1.15;;
66437;SDS011;54537;47.972;11.662;2024-02-26T03:00:17;1.80;;;1.00;;
66437;SDS011;54537;47.972;11.662;2024-02-26T03:02:44;1.55;;;1.00;;
66437;SDS011;54537;47.972;11.662;2024-02-26T03:05:11;3.47;;;1.10;;
66437;SDS011;54537;47.972;11.662;2024-02-26T03:07:37;2.10;;;1.17;;
66437;SDS011;54537;47.972;11.662;2024-02-26T03:10:04;3.10;;;1.20;;
66437;SDS011;54537;47.972;11.662;2024-02-26T03:12:33;3.63;;;1.70;;
66437;SDS011;54537;47.972;11.662;2024-02-26T03:14:59;3.15;;;1.60;;
66437;SDS011;54537;47.972;11.662;2024-02-26T03:17:27;3.67;;;1.60;;
66437;SDS011;54537;47.972;11.662;2024-02-26T03:19:54;3.03;;;1.60;;
66437;SDS011;54537;47.972;11.662;2024-02-26T03:22:21;3.22;;;1.73;;
66437;SDS011;54537;47.972;11.662;2024-02-26T03:24:47;3.20;;;1.50;;
66437;SDS011;54537;47.972;11.662;2024-02-26T03:27:14;3.30;;;1.75;;
66437;SDS011;54537;47.972;11.662;2024-02-26T03:29:42;3.60;;;1.77;;
66437;SDS011;54537;47.972;11.662;2024-02-26T03:32:09;3.28;;;1.70;;
66437;SDS011;54537;47.972;11.662;2024-02-26T03:34:35;2.90;;;1.60;;
66437;SDS011;54537;47.972;11.662;2024-02-26T03:37:04;2.70;;;1.65;;
66437;SDS011;54537;47.972;11.662;2024-02-26T03:39:30;2.60;;;1.45;;
66437;SDS011;54537;47.972;11.662;2024-02-26T03:41:57;3.90;;;1.60;;
66437;SDS011;54537;47.972;11.662;2024-02-26T03:44:23;3.37;;;1.67;;
66437;SDS011;54537;47.972;11.662;2024-02-26T03:46:51;3.45;;;1.60;;
66437;SDS011;54537;47.972;11.662;2024-02-26T03:49:18;2.70;;;1.43;;
66437;SDS011;54537;47.972;11.662;2024-02-26T03:51:44;4.40;;;1.52;;
66437;SDS011;54537;47.972;11.662;2024-02-26T03:54:10;3.38;;;1.67;;
66437;SDS011;54537;47.972;11.662;2024-02-26T03:56:37;2.85;;;1.50;;
66437;SDS011;54537;47.972;11.662;2024-02-26T03:59:03;2.60;;;1.33;;
66437;SDS011;54537;47.972;11.662;2024-02-26T04:01:31;1.98;;;1.27;;
66437;SDS011;54537;47.972;11.662;2024-02-26T04:03:59;3.10;;;1.70;;
66437;SDS011;54537;47.972;11.662;2024-02-26T04:06:25;3.92;;;1.52;;
66437;SDS011;54537;47.972;11.662;2024-02-26T04:08:51;2.70;;;1.55;;
66437;SDS011;54537;47.972;11.662;2024-02-26T04:11:18;2.90;;;1.70;;
66437;SDS011;54537;47.972;11.662;2024-02-26T04:13:45;2.75;;;1.35;;
66437;SDS011;54537;47.972;11.662;2024-02-26T04:16:14;2.22;;;1.30;;
66437;SDS011;54537;47.972;11.662;2024-02-26T04:18:41;2.45;;;1.10;;
66437;SDS011;54537;47.972;11.662;2024-02-26T04:21:09;2.00;;;1.20;;
66437;SDS011;54537;47.972;11.662;2024-02-26T04:23:35;2.42;;;1.33;;
66437;SDS011;54537;47.972;11.662;2024-02-26T04:26:02;2.70;;;1.48;;
66437;SDS011;54537;47.972;11.662;2024-02-26T04:28:29;2.13;;;1.30;;
66437;SDS011;54537;47.972;11.662;2024-02-26T04:30:55;2.53;;;1.27;;
66437;SDS011;54537;47.972;11.662;2024-02-26T04:33:22;2.53;;;1.17;;
66437;SDS011;54537;47.972;11.662;2024-02-26T04:35:48;3.42;;;1.40;;
66437;SDS011;54537;47.972;11.662;2024-02-26T04:38:16;3.10;;;1.20;;
66437;SDS011;54537;47.972;11.662;2024-02-26T04:40:42;3.67;;;1.30;;
66437;SDS011;54537;47.972;11.662;2024-02-26T04:43:09;1.90;;;1.17;;
66437;SDS011;54537;47.972;11.662;2024-02-26T04:45:35;2.15;;;1.27;;
66437;SDS011;54537;47.972;11.662;2024-02-26T04:48:02;3.55;;;1.20;;
66437;SDS011;54537;47.972;11.662;2024-02-26T04:50:29;3.80;;;0.93;;
66437;SDS011;54537;47.972;11.662;2024-02-26T04:52:55;1.20;;;0.80;;
66437;SDS011;54537;47.972;11.662;2024-02-26T04:55:23;1.77;;;0.93;;
66437;SDS011;54537;47.972;11.662;2024-02-26T04:57:49;1.70;;;1.00;;
66437;SDS011;54537;47.972;11.662;2024-02-26T05:00:16;2.42;;;1.33;;
66437;SDS011;54537;47.972;11.662;2024-02-26T05:02:43;1.73;;;0.93;;
66437;SDS011;54537;47.972;11.662;2024-02-26T05:05:09;2.50;;;1.10;;
66437;SDS011;54537;47.972;11.662;2024-02-26T05:07:39;2.33;;;1.00;;
66437;SDS011;54537;47.972;11.662;2024-02-26T05:10:06;2.20;;;0.90;;
66437;SDS011;54537;47.972;11.662;2024-02-26T05:12:34;1.17;;;0.75;;
66437;SDS011;54537;47.972;11.662;2024-02-26T05:15:01;1.45;;;0.90;;
66437;SDS011;54537;47.972;11.662;2024-02-26T05:17:28;1.35;;;0.80;;
66437;SDS011;54537;47.972;11.662;2024-02-26T05:19:54;2.37;;;1.00;;
66437;SDS011;54537;47.972;11.662;2024-02-26T05:22:21;2.90;;;1.00;;
66437;SDS011;54537;47.972;11.662;2024-02-26T05:24:47;1.88;;;0.70;;
66437;SDS011;54537;47.972;11.662;2024-02-26T05:27:14;2.33;;;0.90;;
66437;SDS011;54537;47.972;11.662;2024-02-26T05:29:41;3.13;;;1.13;;
66437;SDS011;54537;47.972;11.662;2024-02-26T05:32:08;4.07;;;1.20;;
66437;SDS011;54537;47.972;11.662;2024-02-26T05:34:34;2.03;;;0.90;;
66437;SDS011;54537;47.972;11.662;2024-02-26T05:37:01;2.88;;;1.20;;
66437;SDS011;54537;47.972;11.662;2024-02-26T05:39:27;3.25;;;1.02;;
66437;SDS011;54537;47.972;11.662;2024-02-26T05:41:54;3.27;;;1.30;;
66437;SDS011;54537;47.972;11.662;2024-02-26T05:44:22;2.95;;;1.20;;
66437;SDS011;54537;47.972;11.662;2024-02-26T05:46:50;4.22;;;1.25;;
66437;SDS011;54537;47.972;11.662;2024-02-26T05:49:16;6.40;;;1.10;;
66437;SDS011;54537;47.972;11.662;2024-02-26T05:51:43;3.65;;;1.13;;
66437;SDS011;54537;47.972;11.662;2024-02-26T05:54:09;5.60;;;1.30;;
66437;SDS011;54537;47.972;11.662;2024-02-26T05:56:36;5.50;;;1.38;;
66437;SDS011;54537;47.972;11.662;2024-02-26T05:59:02;2.60;;;1.37;;
66437;SDS011;54537;47.972;11.662;2024-02-26T06:01:29;4.80;;;1.50;;
66437;SDS011;54537;47.972;11.662;2024-02-26T06:03:57;4.07;;;1.45;;
66437;SDS011;54537;47.972;11.662;2024-02-26T06:06:23;8.80;;;1.43;;
66437;SDS011;54537;47.972;11.662;2024-02-26T06:08:50;6.88;;;1.45;;
66437;SDS011;54537;47.972;11.662;2024-02-26T06:11:16;5.53;;;1.30;;
66437;SDS011;54537;47.972;11.662;2024-02-26T06:13:43;3.35;;;1.13;;
66437;SDS011;54537;47.972;11.662;2024-02-26T06:16:09;2.60;;;1.20;;
66437;SDS011;54537;47.972;11.662;2024-02-26T06:18:36;2.15;;;1.10;;
66437;SDS011;54537;47.972;11.662;2024-02-26T06:21:04;1.90;;;0.80;;
66437;SDS011;54537;47.972;11.662;2024-02-26T06:23:30;2.53;;;1.13;;
66437;SDS011;54537;47.972;11.662;2024-02-26T06:25:57;2.33;;;0.75;;
66437;SDS011;54537;47.972;11.662;2024-02-26T06:28:24;3.80;;;1.10;;
66437;SDS011;54537;47.972;11.662;2024-02-26T06:30:50;6.70;;;1.40;;
66437;SDS011;54537;47.972;11.662;2024-02-26T06:33:17;5.32;;;1.20;;
66437;SDS011;54537;47.972;11.662;2024-02-26T06:35:44;4.00;;;1.25;;
66437;SDS011;54537;47.972;11.662;2024-02-26T06:38:12;2.95;;;0.93;;
66437;SDS011;54537;47.972;11.662;2024-02-26T06:40:38;3.30;;;1.30;;
66437;SDS011;54537;47.972;11.662;2024-02-26T06:43:05;1.25;;;0.70;;
66437;SDS011;54537;47.972;11.662;2024-02-26T06:45:31;2.00;;;0.85;;
66437;SDS011;54537;47.972;11.662;2024-02-26T06:47:58;1.92;;;0.90;;
66437;SDS011;54537;47.972;11.662;2024-02-26T06:50:24;2.05;;;0.73;;
66437;SDS011;54537;47.972;11.662;2024-02-26T06:52:51;1.65;;;0.82;;
66437;SDS011;54537;47.972;11.662;2024-02-26T06:55:19;2.17;;;0.77;;
66437;SDS011;54537;47.972;11.662;2024-02-26T06:57:45;1.52;;;0.80;;
66437;SDS011;54537;47.972;11.662;2024-02-26T07:00:12;2.05;;;0.80;;
66437;SDS011;54537;47.972;11.662;2024-02-26T07:02:41;1.70;;;0.82;;
66437;SDS011;54537;47.972;11.662;2024-02-26T07:05:08;1.33;;;0.65;;
66437;SDS011;54537;47.972;11.662;2024-02-26T07:07:35;7.07;;;1.08;;
66437;SDS011;54537;47.972;11.662;2024-02-26T07:10:01;11.27;;;1.75;;
66437;SDS011;54537;47.972;11.662;2024-02-26T07:12:30;5.35;;;1.08;;
66437;SDS011;54537;47.972;11.662;2024-02-26T07:14:56;2.25;;;0.90;;
66437;SDS011;54537;47.972;11.662;2024-02-26T07:17:23;2.90;;;1.20;;
66437;SDS011;54537;47.972;11.662;2024-02-26T07:19:49;3.08;;;0.65;;
66437;SDS011;54537;47.972;11.662;2024-02-26T07:22:16;1.42;;;0.70;;
66437;SDS011;54537;47.972;11.662;2024-02-26T07:24:42;1.30;;;0.60;;
66437;SDS011;54537;47.972;11.662;2024-02-26T07:27:09;3.65;;;0.77;;
66437;SDS011;54537;47.972;11.662;2024-02-26T07:29:37;1.15;;;0.70;;
66437;SDS011;54537;47.972;11.662;2024-02-26T07:32:04;0.63;;;0.50;;
66437;SDS011;54537;47.972;11.662;2024-02-26T07:34:32;2.03;;;0.88;;
66437;SDS011;54537;47.972;11.662;2024-02-26T07:36:58;1.63;;;0.75;;
66437;SDS011;54537;47.972;11.662;2024-02-26T10:03:51;1.10;;;0.85;;
66437;SDS011;54537;47.972;11.662;2024-02-26T10:06:21;1.70;;;0.90;;
66437;SDS011;54537;47.972;11.662;2024-02-26T10:08:48;1.73;;;0.80;;
66437;SDS011;54537;47.972;11.662;2024-02-26T10:11:14;2.47;;;0.88;;
66437;SDS011;54537;47.972;11.662;2024-02-26T10:13:41;3.20;;;0.95;;
66437;SDS011;54537;47.972;11.662;2024-02-26T10:16:08;2.20;;;1.23;;
66437;SDS011;54537;47.972;11.662;2024-02-26T10:18:47;4.05;;;1.55;;
66437;SDS011;54537;47.972;11.662;2024-02-26T10:21:17;2.58;;;1.30;;
66437;SDS011;54537;47.972;11.662;2024-02-26T10:23:43;4.38;;;1.48;;
66437;SDS011;54537;47.972;11.662;2024-02-26T10:26:10;4.55;;;1.40;;
66437;SDS011;54537;47.972;11.662;2024-02-26T10:28:37;3.78;;;1.40;;
66437;SDS011;54537;47.972;11.662;2024-02-26T11:39:44;1.70;;;1.10;;
66437;SDS011;54537;47.972;11.662;2024-02-26T11:42:13;2.10;;;1.30;;
66437;SDS011;54537;47.972;11.662;2024-02-26T11:44:40;2.53;;;1.33;;
66437;SDS011;54537;47.972;11.662;2024-02-26T11:47:11;2.47;;;1.20;;
66437;SDS011;54537;47.972;11.662;2024-02-26T11:49:38;3.20;;;1.40;;
66437;SDS011;54537;47.972;11.662;2024-02-26T11:52:06;1.92;;;1.30;;
66437;SDS011;54537;47.972;11.662;2024-02-26T11:54:40;1.80;;;1.20;;
66437;SDS011;54537;47.972;11.662;2024-02-26T11:57:22;2.63;;;1.30;;
66437;SDS011;54537;47.972;11.662;2024-02-26T11:59:50;2.67;;;1.25;;
66437;SDS011;54537;47.972;11.662;2024-02-26T12:05:07;2.10;;;1.02;;
66437;SDS011;54537;47.972;11.662;2024-02-26T12:07:37;1.83;;;1.17;;
66437;SDS011;54537;47.972;11.662;2024-02-26T12:12:52;2.63;;;1.23;;
66437;SDS011;54537;47.972;11.662;2024-02-26T12:15:22;2.92;;;1.30;;
66437;SDS011;54537;47.972;11.662;2024-02-26T12:17:50;2.50;;;1.30;;
66437;SDS011;54537;47.972;11.662;2024-02-26T12:20:17;2.83;;;1.40;;
66437;SDS011;54537;47.972;11.662;2024-02-26T12:22:45;1.75;;;1.00;;
66437;SDS011;54537;47.972;11.662;2024-02-26T12:25:13;1.63;;;1.00;;
66437;SDS011;54537;47.972;11.662;2024-02-26T12:27:39;1.40;;;1.00;;
66437;SDS011;54537;47.972;11.662;2024-02-26T12:30:07;4.38;;;1.20;;
66437;SDS011;54537;47.972;11.662;2024-02-26T12:32:34;1.95;;;1.10;;
66437;SDS011;54537;47.972;11.662;2024-02-26T12:35:02;1.03;;;0.77;;
66437;SDS011;54537;47.972;11.662;2024-02-26T12:37:30;2.10;;;1.00;;
66437;SDS011;54537;47.972;11.662;2024-02-26T12:39:57;1.15;;;0.82;;
66437;SDS011;54537;47.972;11.662;2024-02-26T12:42:23;2.55;;;1.20;;
66437;SDS011;54537;47.972;11.662;2024-02-26T12:44:50;1.67;;;1.10;;
66437;SDS011;54537;47.972;11.662;2024-02-26T12:47:16;2.08;;;1.20;;
66437;SDS011;54537;47.972;11.662;2024-02-26T12:49:45;2.97;;;1.20;;
66437;SDS011;54537;47.972;11.662;2024-02-26T12:52:14;1.75;;;1.10;;
66437;SDS011;54537;47.972;11.662;2024-02-26T12:54:41;2.58;;;1.20;;
66437;SDS011;54537;47.972;11.662;2024-02-26T12:57:07;1.92;;;0.95;;
66437;SDS011;54537;47.972;11.662;2024-02-26T12:59:34;1.50;;;1.10;;
66437;SDS011;54537;47.972;11.662;2024-02-26T13:02:02;1.92;;;1.10;;
66437;SDS011;54537;47.972;11.662;2024-02-26T13:04:29;1.55;;;1.00;;
66437;SDS011;54537;47.972;11.662;2024-02-26T13:06:56;3.33;;;1.10;;
66437;SDS011;54537;47.972;11.662;2024-02-26T13:09:27;1.80;;;0.98;;
66437;SDS011;54537;47.972;11.662;2024-02-26T13:11:53;1.38;;;0.90;;
66437;SDS011;54537;47.972;11.662;2024-02-26T13:14:20;1.20;;;0.90;;
66437;SDS011;54537;47.972;11.662;2024-02-26T13:16:54;1.35;;;1.02;;
66437;SDS011;54537;47.972;11.662;2024-02-26T13:19:21;1.35;;;0.90;;
66437;SDS011;54537;47.972;11.662;2024-02-26T13:21:47;1.10;;;0.80;;
66437;SDS011;54537;47.972;11.662;2024-02-26T13:24:14;1.60;;;1.20;;
66437;SDS011;54537;47.972;11.662;2024-02-26T13:26:42;0.80;;;0.80;;
66437;SDS011;54537;47.972;11.662;2024-02-26T13:29:09;2.10;;;0.90;;
66437;SDS011;54537;47.972;11.662;2024-02-26T13:31:43;1.25;;;0.90;;
66437;SDS011;54537;47.972;11.662;2024-02-26T13:34:09;1.50;;;0.80;;
66437;SDS011;54537;47.972;11.662;2024-02-26T13:36:36;1.80;;;0.80;;
66437;SDS011;54537;47.972;11.662;2024-02-26T13:39:02;0.60;;;0.60;;
66437;SDS011;54537;47.972;11.662;2024-02-26T13:41:30;0.63;;;0.60;;
66437;SDS011;54537;47.972;11.662;2024-02-26T13:43:58;1.25;;;0.80;;
66437;SDS011;54537;47.972;11.662;2024-02-26T13:46:25;0.90;;;0.55;;
66437;SDS011;54537;47.972;11.662;2024-02-26T13:48:51;0.77;;;0.63;;
66437;SDS011;54537;47.972;11.662;2024-02-26T13:51:19;1.50;;;0.80;;
66437;SDS011;54537;47.972;11.662;2024-02-26T13:53:46;0.75;;;0.70;;
66437;SDS011;54537;47.972;11.662;2024-02-26T13:56:12;1.63;;;0.80;;
66437;SDS011;54537;47.972;11.662;2024-02-26T13:58:39;1.50;;;0.95;;
66437;SDS011;54537;47.972;11.662;2024-02-26T14:01:07;1.38;;;0.80;;
66437;SDS011;54537;47.972;11.662;2024-02-26T14:03:34;2.20;;;0.90;;
66437;SDS011;54537;47.972;11.662;2024-02-26T14:06:00;4.35;;;1.10;;
66437;SDS011;54537;47.972;11.662;2024-02-26T14:08:27;2.63;;;0.90;;
66437;SDS011;54537;47.972;11.662;2024-02-26T14:10:53;2.33;;;1.10;;
66437;SDS011;54537;47.972;11.662;2024-02-26T14:13:20;1.42;;;0.70;;
66437;SDS011;54537;47.972;11.662;2024-02-26T14:15:47;1.45;;;0.77;;
66437;SDS011;54537;47.972;11.662;2024-02-26T14:18:14;3.30;;;0.90;;
